sensor_id;sensor_type;location;lat;lon;timestamp;P1;durP1;ratioP1;P2;durP2;ratioP2
78382;SDS011;67668;52.294;4.692;2023-05-07T00:04:28;12.70;;;9.35;;
78382;SDS011;67668;52.294;4.692;2023-05-07T00:06:54;16.00;;;10.40;;
78382;SDS011;67668;52.294;4.692;2023-05-07T00:09:20;15.75;;;11.68;;
78382;SDS011;67668;52.294;4.692;2023-05-07T00:11:46;17.85;;;11.35;;
78382;SDS011;67668;52.294;4.692;2023-05-07T00:14:11;20.35;;;12.43;;
78382;SDS011;67668;52.294;4.692;2023-05-07T00:16:36;18.02;;;11.73;;
78382;SDS011;67668;52.294;4.692;2023-05-07T00:19:02;18.37;;;13.20;;
78382;SDS011;67668;52.294;4.692;2023-05-07T00:21:28;20.08;;;13.35;;
78382;SDS011;67668;52.294;4.692;2023-05-07T00:23:54;22.83;;;12.80;;
78382;SDS011;67668;52.294;4.692;2023-05-07T00:26:19;21.20;;;14.48;;
78382;SDS011;67668;52.294;4.692;2023-05-07T00:28:45;24.05;;;15.40;;
78382;SDS011;67668;52.294;4.692;2023-05-07T00:31:12;24.63;;;15.43;;
78382;SDS011;67668;52.294;4.692;2023-05-07T00:33:37;25.90;;;17.85;;
78382;SDS011;67668;52.294;4.692;2023-05-07T00:38:33;23.30;;;16.08;;
78382;SDS011;67668;52.294;4.692;2023-05-07T00:40:58;28.33;;;16.75;;
78382;SDS011;67668;52.294;4.692;2023-05-07T00:43:23;27.63;;;17.33;;
78382;SDS011;67668;52.294;4.692;2023-05-07T00:45:49;24.52;;;16.52;;
78382;SDS011;67668;52.294;4.692;2023-05-07T00:48:15;29.35;;;17.38;;
78382;SDS011;67668;52.294;4.692;2023-05-07T00:50:42;23.52;;;16.13;;
78382;SDS011;67668;52.294;4.692;2023-05-07T00:53:08;23.90;;;16.10;;
78382;SDS011;67668;52.294;4.692;2023-05-07T00:55:34;24.17;;;16.67;;
78382;SDS011;67668;52.294;4.692;2023-05-07T00:58:00;26.73;;;17.10;;
78382;SDS011;67668;52.294;4.692;2023-05-07T01:00:29;24.98;;;16.95;;
78382;SDS011;67668;52.294;4.692;2023-05-07T01:02:54;30.08;;;17.77;;
78382;SDS011;67668;52.294;4.692;2023-05-07T01:05:20;28.52;;;16.58;;
78382;SDS011;67668;52.294;4.692;2023-05-07T01:07:48;28.75;;;16.17;;
78382;SDS011;67668;52.294;4.692;2023-05-07T01:10:15;27.30;;;16.83;;
78382;SDS011;67668;52.294;4.692;2023-05-07T01:12:41;27.60;;;16.85;;
78382;SDS011;67668;52.294;4.692;2023-05-07T01:15:07;27.33;;;16.75;;
78382;SDS011;67668;52.294;4.692;2023-05-07T01:17:37;26.67;;;18.10;;
78382;SDS011;67668;52.294;4.692;2023-05-07T01:20:05;26.75;;;17.30;;
78382;SDS011;67668;52.294;4.692;2023-05-07T01:22:32;25.10;;;16.55;;
78382;SDS011;67668;52.294;4.692;2023-05-07T01:24:59;25.98;;;16.75;;
78382;SDS011;67668;52.294;4.692;2023-05-07T01:27:26;30.95;;;17.52;;
78382;SDS011;67668;52.294;4.692;2023-05-07T01:29:52;26.10;;;18.60;;
78382;SDS011;67668;52.294;4.692;2023-05-07T01:32:22;28.63;;;18.27;;
78382;SDS011;67668;52.294;4.692;2023-05-07T01:35:01;31.63;;;19.95;;
78382;SDS011;67668;52.294;4.692;2023-05-07T01:37:28;28.95;;;18.15;;
78382;SDS011;67668;52.294;4.692;2023-05-07T01:39:54;26.95;;;17.15;;
78382;SDS011;67668;52.294;4.692;2023-05-07T01:42:20;25.60;;;17.75;;
78382;SDS011;67668;52.294;4.692;2023-05-07T01:44:47;25.42;;;17.70;;
78382;SDS011;67668;52.294;4.692;2023-05-07T01:47:14;30.60;;;18.63;;
78382;SDS011;67668;52.294;4.692;2023-05-07T01:49:41;26.17;;;18.10;;
78382;SDS011;67668;52.294;4.692;2023-05-07T01:52:08;28.70;;;18.95;;
78382;SDS011;67668;52.294;4.692;2023-05-07T01:54:34;28.60;;;18.25;;
78382;SDS011;67668;52.294;4.692;2023-05-07T01:57:00;31.95;;;20.70;;
78382;SDS011;67668;52.294;4.692;2023-05-07T01:59:26;31.83;;;19.37;;
78382;SDS011;67668;52.294;4.692;2023-05-07T02:01:51;24.83;;;14.98;;
78382;SDS011;67668;52.294;4.692;2023-05-07T02:04:17;29.48;;;19.40;;
78382;SDS011;67668;52.294;4.692;2023-05-07T02:06:42;30.70;;;18.77;;
78382;SDS011;67668;52.294;4.692;2023-05-07T02:09:08;27.35;;;18.35;;
78382;SDS011;67668;52.294;4.692;2023-05-07T02:11:34;27.95;;;18.80;;
78382;SDS011;67668;52.294;4.692;2023-05-07T02:13:59;27.45;;;18.02;;
78382;SDS011;67668;52.294;4.692;2023-05-07T02:16:25;27.13;;;16.33;;
78382;SDS011;67668;52.294;4.692;2023-05-07T02:18:50;27.65;;;18.45;;
78382;SDS011;67668;52.294;4.692;2023-05-07T02:21:15;27.08;;;17.92;;
78382;SDS011;67668;52.294;4.692;2023-05-07T02:23:41;29.50;;;18.00;;
78382;SDS011;67668;52.294;4.692;2023-05-07T02:26:06;26.10;;;16.50;;
78382;SDS011;67668;52.294;4.692;2023-05-07T02:28:32;24.85;;;15.43;;
78382;SDS011;67668;52.294;4.692;2023-05-07T02:30:58;24.80;;;16.02;;
78382;SDS011;67668;52.294;4.692;2023-05-07T02:33:24;25.00;;;13.82;;
78382;SDS011;67668;52.294;4.692;2023-05-07T02:35:50;23.10;;;14.90;;
78382;SDS011;67668;52.294;4.692;2023-05-07T02:38:23;24.73;;;14.65;;
78382;SDS011;67668;52.294;4.692;2023-05-07T02:40:48;23.45;;;13.57;;
78382;SDS011;67668;52.294;4.692;2023-05-07T02:43:13;20.70;;;13.85;;
78382;SDS011;67668;52.294;4.692;2023-05-07T02:45:39;20.77;;;13.55;;
78382;SDS011;67668;52.294;4.692;2023-05-07T02:48:04;23.38;;;13.93;;
78382;SDS011;67668;52.294;4.692;2023-05-07T02:50:33;23.00;;;13.52;;
78382;SDS011;67668;52.294;4.692;2023-05-07T02:52:58;23.33;;;13.70;;
78382;SDS011;67668;52.294;4.692;2023-05-07T02:55:24;20.10;;;14.02;;
78382;SDS011;67668;52.294;4.692;2023-05-07T02:57:50;18.42;;;12.65;;
78382;SDS011;67668;52.294;4.692;2023-05-07T03:00:16;19.73;;;13.05;;
78382;SDS011;67668;52.294;4.692;2023-05-07T03:03:02;19.15;;;12.05;;
78382;SDS011;67668;52.294;4.692;2023-05-07T03:05:48;20.23;;;13.50;;
78382;SDS011;67668;52.294;4.692;2023-05-07T03:08:13;20.42;;;12.38;;
78382;SDS011;67668;52.294;4.692;2023-05-07T03:10:39;17.80;;;10.60;;
78382;SDS011;67668;52.294;4.692;2023-05-07T03:13:04;17.13;;;10.43;;
78382;SDS011;67668;52.294;4.692;2023-05-07T03:15:30;16.20;;;10.32;;
78382;SDS011;67668;52.294;4.692;2023-05-07T03:17:55;15.18;;;10.00;;
78382;SDS011;67668;52.294;4.692;2023-05-07T03:20:21;15.43;;;9.00;;
78382;SDS011;67668;52.294;4.692;2023-05-07T03:22:46;14.45;;;9.38;;
78382;SDS011;67668;52.294;4.692;2023-05-07T03:25:12;15.02;;;10.20;;
78382;SDS011;67668;52.294;4.692;2023-05-07T03:27:37;15.95;;;10.48;;
78382;SDS011;67668;52.294;4.692;2023-05-07T03:30:03;14.57;;;9.07;;
78382;SDS011;67668;52.294;4.692;2023-05-07T03:32:29;15.00;;;9.95;;
78382;SDS011;67668;52.294;4.692;2023-05-07T03:34:54;11.75;;;8.88;;
78382;SDS011;67668;52.294;4.692;2023-05-07T03:37:21;15.50;;;8.55;;
78382;SDS011;67668;52.294;4.692;2023-05-07T03:39:47;13.52;;;8.70;;
78382;SDS011;67668;52.294;4.692;2023-05-07T03:42:12;11.65;;;7.53;;
78382;SDS011;67668;52.294;4.692;2023-05-07T03:44:38;14.00;;;8.18;;
78382;SDS011;67668;52.294;4.692;2023-05-07T03:47:03;12.03;;;7.53;;
78382;SDS011;67668;52.294;4.692;2023-05-07T03:49:29;10.52;;;7.57;;
78382;SDS011;67668;52.294;4.692;2023-05-07T03:51:54;11.07;;;8.20;;
78382;SDS011;67668;52.294;4.692;2023-05-07T03:54:20;10.45;;;7.25;;
78382;SDS011;67668;52.294;4.692;2023-05-07T03:56:46;10.27;;;6.97;;
78382;SDS011;67668;52.294;4.692;2023-05-07T03:59:12;14.00;;;8.07;;
78382;SDS011;67668;52.294;4.692;2023-05-07T04:01:38;10.40;;;6.40;;
78382;SDS011;67668;52.294;4.692;2023-05-07T04:04:03;11.45;;;6.82;;
78382;SDS011;67668;52.294;4.692;2023-05-07T04:06:29;10.90;;;6.72;;
78382;SDS011;67668;52.294;4.692;2023-05-07T04:08:54;10.43;;;6.82;;
78382;SDS011;67668;52.294;4.692;2023-05-07T04:11:20;10.35;;;6.55;;
78382;SDS011;67668;52.294;4.692;2023-05-07T04:13:45;10.20;;;6.00;;
78382;SDS011;67668;52.294;4.692;2023-05-07T04:16:11;10.30;;;6.05;;
78382;SDS011;67668;52.294;4.692;2023-05-07T04:18:36;7.80;;;5.88;;
78382;SDS011;67668;52.294;4.692;2023-05-07T04:21:02;9.05;;;6.15;;
78382;SDS011;67668;52.294;4.692;2023-05-07T04:23:27;11.20;;;5.82;;
78382;SDS011;67668;52.294;4.692;2023-05-07T04:25:52;10.27;;;5.55;;
78382;SDS011;67668;52.294;4.692;2023-05-07T04:28:19;9.93;;;6.25;;
78382;SDS011;67668;52.294;4.692;2023-05-07T04:30:45;8.80;;;5.72;;
78382;SDS011;67668;52.294;4.692;2023-05-07T04:33:11;7.32;;;5.57;;
78382;SDS011;67668;52.294;4.692;2023-05-07T04:35:36;10.70;;;5.35;;
78382;SDS011;67668;52.294;4.692;2023-05-07T04:38:02;8.93;;;5.75;;
78382;SDS011;67668;52.294;4.692;2023-05-07T04:40:27;9.00;;;5.43;;
78382;SDS011;67668;52.294;4.692;2023-05-07T04:42:53;9.20;;;5.47;;
78382;SDS011;67668;52.294;4.692;2023-05-07T04:45:18;9.60;;;5.60;;
78382;SDS011;67668;52.294;4.692;2023-05-07T04:47:45;7.68;;;5.15;;
78382;SDS011;67668;52.294;4.692;2023-05-07T04:50:10;9.52;;;5.75;;
78382;SDS011;67668;52.294;4.692;2023-05-07T04:52:36;9.80;;;5.95;;
78382;SDS011;67668;52.294;4.692;2023-05-07T04:55:01;9.75;;;6.53;;
78382;SDS011;67668;52.294;4.692;2023-05-07T04:57:27;9.27;;;5.93;;
78382;SDS011;67668;52.294;4.692;2023-05-07T04:59:53;8.18;;;5.35;;
78382;SDS011;67668;52.294;4.692;2023-05-07T05:02:18;10.48;;;6.40;;
78382;SDS011;67668;52.294;4.692;2023-05-07T05:04:44;7.28;;;5.65;;
78382;SDS011;67668;52.294;4.692;2023-05-07T05:07:10;8.90;;;6.05;;
78382;SDS011;67668;52.294;4.692;2023-05-07T05:09:36;8.75;;;6.32;;
78382;SDS011;67668;52.294;4.692;2023-05-07T05:12:01;9.47;;;5.93;;
78382;SDS011;67668;52.294;4.692;2023-05-07T05:14:26;15.10;;;7.10;;
78382;SDS011;67668;52.294;4.692;2023-05-07T05:16:52;9.45;;;6.53;;
78382;SDS011;67668;52.294;4.692;2023-05-07T05:19:17;8.75;;;6.13;;
78382;SDS011;67668;52.294;4.692;2023-05-07T05:21:43;9.63;;;6.07;;
78382;SDS011;67668;52.294;4.692;2023-05-07T05:24:08;8.77;;;5.87;;
78382;SDS011;67668;52.294;4.692;2023-05-07T05:26:34;9.43;;;5.93;;
78382;SDS011;67668;52.294;4.692;2023-05-07T05:28:59;8.82;;;6.47;;
78382;SDS011;67668;52.294;4.692;2023-05-07T05:31:25;7.43;;;6.22;;
78382;SDS011;67668;52.294;4.692;2023-05-07T05:33:50;9.73;;;6.35;;
78382;SDS011;67668;52.294;4.692;2023-05-07T05:36:17;9.73;;;6.27;;
78382;SDS011;67668;52.294;4.692;2023-05-07T05:38:42;11.02;;;7.13;;
78382;SDS011;67668;52.294;4.692;2023-05-07T05:41:08;12.23;;;7.53;;
78382;SDS011;67668;52.294;4.692;2023-05-07T05:43:34;9.10;;;7.00;;
78382;SDS011;67668;52.294;4.692;2023-05-07T05:46:00;9.93;;;7.13;;
78382;SDS011;67668;52.294;4.692;2023-05-07T05:48:26;10.50;;;7.65;;
78382;SDS011;67668;52.294;4.692;2023-05-07T05:50:51;12.50;;;7.35;;
78382;SDS011;67668;52.294;4.692;2023-05-07T05:53:17;13.07;;;7.10;;
78382;SDS011;67668;52.294;4.692;2023-05-07T05:55:42;10.70;;;7.18;;
78382;SDS011;67668;52.294;4.692;2023-05-07T05:58:08;10.77;;;7.53;;
78382;SDS011;67668;52.294;4.692;2023-05-07T06:00:34;12.02;;;7.38;;
78382;SDS011;67668;52.294;4.692;2023-05-07T06:02:59;10.63;;;7.72;;
78382;SDS011;67668;52.294;4.692;2023-05-07T06:05:25;14.90;;;9.03;;
78382;SDS011;67668;52.294;4.692;2023-05-07T06:07:51;10.65;;;8.48;;
78382;SDS011;67668;52.294;4.692;2023-05-07T06:10:16;12.23;;;8.90;;
78382;SDS011;67668;52.294;4.692;2023-05-07T06:12:41;14.30;;;8.48;;
78382;SDS011;67668;52.294;4.692;2023-05-07T06:15:07;13.90;;;8.95;;
78382;SDS011;67668;52.294;4.692;2023-05-07T06:17:33;12.50;;;8.98;;
78382;SDS011;67668;52.294;4.692;2023-05-07T06:19:59;14.57;;;10.55;;
78382;SDS011;67668;52.294;4.692;2023-05-07T06:22:24;14.35;;;10.35;;
78382;SDS011;67668;52.294;4.692;2023-05-07T06:24:50;16.10;;;10.73;;
78382;SDS011;67668;52.294;4.692;2023-05-07T06:27:15;15.23;;;10.75;;
78382;SDS011;67668;52.294;4.692;2023-05-07T06:29:41;15.05;;;10.40;;
78382;SDS011;67668;52.294;4.692;2023-05-07T06:32:10;15.02;;;10.65;;
78382;SDS011;67668;52.294;4.692;2023-05-07T06:34:36;14.57;;;10.65;;
78382;SDS011;67668;52.294;4.692;2023-05-07T06:37:02;16.13;;;11.02;;
78382;SDS011;67668;52.294;4.692;2023-05-07T06:39:29;15.90;;;11.90;;
78382;SDS011;67668;52.294;4.692;2023-05-07T06:41:54;15.07;;;11.90;;
78382;SDS011;67668;52.294;4.692;2023-05-07T06:44:20;14.70;;;10.73;;
78382;SDS011;67668;52.294;4.692;2023-05-07T06:46:45;18.35;;;12.10;;
78382;SDS011;67668;52.294;4.692;2023-05-07T06:49:14;18.40;;;11.95;;
78382;SDS011;67668;52.294;4.692;2023-05-07T06:51:40;16.83;;;12.20;;
78382;SDS011;67668;52.294;4.692;2023-05-07T06:54:06;17.15;;;12.45;;
78382;SDS011;67668;52.294;4.692;2023-05-07T06:56:31;16.02;;;12.35;;
78382;SDS011;67668;52.294;4.692;2023-05-07T06:58:57;22.27;;;15.50;;
78382;SDS011;67668;52.294;4.692;2023-05-07T07:01:22;18.48;;;12.02;;
78382;SDS011;67668;52.294;4.692;2023-05-07T07:03:48;16.95;;;12.80;;
78382;SDS011;67668;52.294;4.692;2023-05-07T07:06:13;18.35;;;11.25;;
78382;SDS011;67668;52.294;4.692;2023-05-07T07:08:59;16.20;;;10.13;;
78382;SDS011;67668;52.294;4.692;2023-05-07T07:11:25;14.07;;;11.45;;
78382;SDS011;67668;52.294;4.692;2023-05-07T07:13:51;16.95;;;11.80;;
78382;SDS011;67668;52.294;4.692;2023-05-07T07:16:19;16.30;;;11.20;;
78382;SDS011;67668;52.294;4.692;2023-05-07T07:18:45;12.60;;;9.93;;
78382;SDS011;67668;52.294;4.692;2023-05-07T07:21:13;14.98;;;10.27;;
78382;SDS011;67668;52.294;4.692;2023-05-07T07:23:38;14.50;;;10.48;;
78382;SDS011;67668;52.294;4.692;2023-05-07T07:26:05;13.10;;;9.65;;
78382;SDS011;67668;52.294;4.692;2023-05-07T07:28:31;15.40;;;9.57;;
78382;SDS011;67668;52.294;4.692;2023-05-07T07:30:57;15.40;;;9.80;;
78382;SDS011;67668;52.294;4.692;2023-05-07T07:33:22;14.27;;;8.90;;
78382;SDS011;67668;52.294;4.692;2023-05-07T07:35:48;14.05;;;10.32;;
78382;SDS011;67668;52.294;4.692;2023-05-07T07:38:13;15.40;;;10.82;;
78382;SDS011;67668;52.294;4.692;2023-05-07T07:40:39;14.93;;;10.77;;
78382;SDS011;67668;52.294;4.692;2023-05-07T07:43:04;12.90;;;9.80;;
78382;SDS011;67668;52.294;4.692;2023-05-07T07:45:31;13.23;;;9.40;;
78382;SDS011;67668;52.294;4.692;2023-05-07T07:47:57;11.75;;;9.25;;
78382;SDS011;67668;52.294;4.692;2023-05-07T07:50:22;12.32;;;9.75;;
78382;SDS011;67668;52.294;4.692;2023-05-07T07:52:48;15.18;;;8.98;;
78382;SDS011;67668;52.294;4.692;2023-05-07T07:55:14;11.90;;;9.40;;
78382;SDS011;67668;52.294;4.692;2023-05-07T07:57:43;12.90;;;9.57;;
78382;SDS011;67668;52.294;4.692;2023-05-07T08:00:08;13.07;;;8.77;;
78382;SDS011;67668;52.294;4.692;2023-05-07T08:02:34;15.77;;;9.93;;
78382;SDS011;67668;52.294;4.692;2023-05-07T08:04:59;12.90;;;9.33;;
78382;SDS011;67668;52.294;4.692;2023-05-07T08:07:25;12.60;;;8.40;;
78382;SDS011;67668;52.294;4.692;2023-05-07T08:10:10;13.57;;;9.10;;
78382;SDS011;67668;52.294;4.692;2023-05-07T08:12:36;12.63;;;7.97;;
78382;SDS011;67668;52.294;4.692;2023-05-07T08:15:01;13.55;;;9.50;;
78382;SDS011;67668;52.294;4.692;2023-05-07T08:17:26;12.23;;;9.13;;
78382;SDS011;67668;52.294;4.692;2023-05-07T08:19:52;14.10;;;9.23;;
78382;SDS011;67668;52.294;4.692;2023-05-07T08:22:17;13.40;;;10.43;;
78382;SDS011;67668;52.294;4.692;2023-05-07T08:24:43;12.93;;;9.23;;
78382;SDS011;67668;52.294;4.692;2023-05-07T08:27:09;12.05;;;8.35;;
78382;SDS011;67668;52.294;4.692;2023-05-07T08:29:36;14.88;;;9.55;;
78382;SDS011;67668;52.294;4.692;2023-05-07T08:32:01;11.30;;;7.90;;
78382;SDS011;67668;52.294;4.692;2023-05-07T08:34:27;13.30;;;8.77;;
78382;SDS011;67668;52.294;4.692;2023-05-07T08:36:52;17.42;;;9.18;;
78382;SDS011;67668;52.294;4.692;2023-05-07T08:39:18;11.70;;;8.80;;
78382;SDS011;67668;52.294;4.692;2023-05-07T08:41:46;11.57;;;7.80;;
78382;SDS011;67668;52.294;4.692;2023-05-07T08:44:13;8.95;;;6.57;;
78382;SDS011;67668;52.294;4.692;2023-05-07T08:46:39;15.32;;;8.57;;
78382;SDS011;67668;52.294;4.692;2023-05-07T08:49:05;11.43;;;7.00;;
78382;SDS011;67668;52.294;4.692;2023-05-07T08:51:30;9.35;;;6.40;;
78382;SDS011;67668;52.294;4.692;2023-05-07T08:53:56;12.25;;;6.38;;
78382;SDS011;67668;52.294;4.692;2023-05-07T08:56:22;10.25;;;6.22;;
78382;SDS011;67668;52.294;4.692;2023-05-07T08:58:48;9.43;;;6.60;;
78382;SDS011;67668;52.294;4.692;2023-05-07T09:01:14;10.15;;;6.22;;
78382;SDS011;67668;52.294;4.692;2023-05-07T09:03:46;8.68;;;5.93;;
78382;SDS011;67668;52.294;4.692;2023-05-07T09:06:12;9.70;;;5.55;;
78382;SDS011;67668;52.294;4.692;2023-05-07T09:08:57;11.82;;;5.95;;
78382;SDS011;67668;52.294;4.692;2023-05-07T09:11:43;9.13;;;5.60;;
78382;SDS011;67668;52.294;4.692;2023-05-07T09:14:28;10.05;;;5.90;;
78382;SDS011;67668;52.294;4.692;2023-05-07T09:17:15;8.52;;;6.10;;
78382;SDS011;67668;52.294;4.692;2023-05-07T09:20:05;9.95;;;6.78;;
78382;SDS011;67668;52.294;4.692;2023-05-07T09:22:31;8.55;;;5.93;;
78382;SDS011;67668;52.294;4.692;2023-05-07T09:25:06;9.82;;;5.95;;
78382;SDS011;67668;52.294;4.692;2023-05-07T09:27:32;7.43;;;5.05;;
78382;SDS011;67668;52.294;4.692;2023-05-07T09:29:57;9.18;;;5.95;;
78382;SDS011;67668;52.294;4.692;2023-05-07T09:32:23;9.27;;;6.10;;
78382;SDS011;67668;52.294;4.692;2023-05-07T09:34:50;7.72;;;4.68;;
78382;SDS011;67668;52.294;4.692;2023-05-07T09:37:16;8.25;;;3.28;;
78382;SDS011;67668;52.294;4.692;2023-05-07T09:39:43;5.97;;;4.07;;
78382;SDS011;67668;52.294;4.692;2023-05-07T09:42:10;6.18;;;3.70;;
78382;SDS011;67668;52.294;4.692;2023-05-07T09:44:45;7.88;;;4.38;;
78382;SDS011;67668;52.294;4.692;2023-05-07T09:47:10;5.60;;;3.95;;
78382;SDS011;67668;52.294;4.692;2023-05-07T09:49:40;8.07;;;3.78;;
78382;SDS011;67668;52.294;4.692;2023-05-07T09:52:13;8.40;;;3.95;;
78382;SDS011;67668;52.294;4.692;2023-05-07T09:54:39;8.70;;;4.63;;
78382;SDS011;67668;52.294;4.692;2023-05-07T09:57:09;9.02;;;4.47;;
78382;SDS011;67668;52.294;4.692;2023-05-07T09:59:37;6.45;;;4.10;;
78382;SDS011;67668;52.294;4.692;2023-05-07T10:02:03;8.40;;;4.70;;
78382;SDS011;67668;52.294;4.692;2023-05-07T10:04:49;5.70;;;3.88;;
78382;SDS011;67668;52.294;4.692;2023-05-07T10:07:15;7.40;;;4.18;;
78382;SDS011;67668;52.294;4.692;2023-05-07T10:10:02;7.47;;;3.45;;
78382;SDS011;67668;52.294;4.692;2023-05-07T10:12:48;8.15;;;3.95;;
78382;SDS011;67668;52.294;4.692;2023-05-07T10:15:36;9.20;;;4.97;;
78382;SDS011;67668;52.294;4.692;2023-05-07T10:18:21;9.13;;;5.00;;
78382;SDS011;67668;52.294;4.692;2023-05-07T10:21:11;5.80;;;3.78;;
78382;SDS011;67668;52.294;4.692;2023-05-07T10:24:18;6.05;;;3.70;;
78382;SDS011;67668;52.294;4.692;2023-05-07T10:27:10;6.32;;;3.35;;
78382;SDS011;67668;52.294;4.692;2023-05-07T10:33:11;9.35;;;4.60;;
78382;SDS011;67668;52.294;4.692;2023-05-07T10:35:44;7.07;;;4.60;;
78382;SDS011;67668;52.294;4.692;2023-05-07T10:38:31;7.93;;;4.70;;
78382;SDS011;67668;52.294;4.692;2023-05-07T10:41:04;8.38;;;4.68;;
78382;SDS011;67668;52.294;4.692;2023-05-07T10:43:50;6.82;;;4.40;;
78382;SDS011;67668;52.294;4.692;2023-05-07T10:46:19;7.70;;;4.15;;
78382;SDS011;67668;52.294;4.692;2023-05-07T10:51:31;5.43;;;3.10;;
78382;SDS011;67668;52.294;4.692;2023-05-07T10:56:39;5.53;;;1.77;;
78382;SDS011;67668;52.294;4.692;2023-05-07T11:01:50;6.85;;;2.70;;
78382;SDS011;67668;52.294;4.692;2023-05-07T11:04:39;7.88;;;2.63;;
78382;SDS011;67668;52.294;4.692;2023-05-07T11:10:14;4.88;;;2.83;;
78382;SDS011;67668;52.294;4.692;2023-05-07T11:12:59;5.90;;;2.45;;
78382;SDS011;67668;52.294;4.692;2023-05-07T11:15:45;5.55;;;2.22;;
78382;SDS011;67668;52.294;4.692;2023-05-07T11:18:48;6.85;;;2.80;;
78382;SDS011;67668;52.294;4.692;2023-05-07T11:21:35;7.95;;;2.83;;
78382;SDS011;67668;52.294;4.692;2023-05-07T11:24:21;3.97;;;2.47;;
78382;SDS011;67668;52.294;4.692;2023-05-07T11:27:07;5.55;;;2.75;;
78382;SDS011;67668;52.294;4.692;2023-05-07T11:29:33;5.82;;;2.60;;
78382;SDS011;67668;52.294;4.692;2023-05-07T11:31:59;5.72;;;2.90;;
78382;SDS011;67668;52.294;4.692;2023-05-07T11:34:25;8.07;;;3.25;;
78382;SDS011;67668;52.294;4.692;2023-05-07T11:36:51;4.80;;;3.40;;
78382;SDS011;67668;52.294;4.692;2023-05-07T11:39:27;8.75;;;3.67;;
78382;SDS011;67668;52.294;4.692;2023-05-07T11:41:53;6.47;;;3.50;;
78382;SDS011;67668;52.294;4.692;2023-05-07T11:44:18;7.47;;;3.30;;
78382;SDS011;67668;52.294;4.692;2023-05-07T11:46:44;6.93;;;2.87;;
78382;SDS011;67668;52.294;4.692;2023-05-07T11:49:10;6.40;;;3.50;;
78382;SDS011;67668;52.294;4.692;2023-05-07T11:51:35;5.13;;;2.72;;
78382;SDS011;67668;52.294;4.692;2023-05-07T11:54:03;6.22;;;3.10;;
78382;SDS011;67668;52.294;4.692;2023-05-07T11:56:33;6.88;;;3.42;;
78382;SDS011;67668;52.294;4.692;2023-05-07T11:58:59;4.88;;;3.63;;
78382;SDS011;67668;52.294;4.692;2023-05-07T12:01:25;8.23;;;3.67;;
78382;SDS011;67668;52.294;4.692;2023-05-07T12:03:50;4.97;;;3.37;;
78382;SDS011;67668;52.294;4.692;2023-05-07T12:06:16;5.53;;;3.30;;
78382;SDS011;67668;52.294;4.692;2023-05-07T12:08:42;9.20;;;4.78;;
78382;SDS011;67668;52.294;4.692;2023-05-07T12:11:10;6.88;;;3.78;;
78382;SDS011;67668;52.294;4.692;2023-05-07T12:13:41;5.63;;;3.42;;
78382;SDS011;67668;52.294;4.692;2023-05-07T12:16:06;7.03;;;3.97;;
78382;SDS011;67668;52.294;4.692;2023-05-07T12:18:34;6.82;;;3.50;;
78382;SDS011;67668;52.294;4.692;2023-05-07T12:21:00;5.95;;;2.72;;
78382;SDS011;67668;52.294;4.692;2023-05-07T12:23:26;6.78;;;3.83;;
78382;SDS011;67668;52.294;4.692;2023-05-07T12:25:52;9.02;;;3.40;;
78382;SDS011;67668;52.294;4.692;2023-05-07T12:28:17;4.90;;;2.60;;
78382;SDS011;67668;52.294;4.692;2023-05-07T12:30:45;6.63;;;3.33;;
78382;SDS011;67668;52.294;4.692;2023-05-07T12:33:22;4.53;;;3.22;;
78382;SDS011;67668;52.294;4.692;2023-05-07T12:35:49;6.07;;;2.58;;
78382;SDS011;67668;52.294;4.692;2023-05-07T12:38:16;6.20;;;3.20;;
78382;SDS011;67668;52.294;4.692;2023-05-07T12:40:53;6.55;;;3.45;;
78382;SDS011;67668;52.294;4.692;2023-05-07T12:43:28;6.38;;;2.70;;
78382;SDS011;67668;52.294;4.692;2023-05-07T12:45:55;5.30;;;2.42;;
78382;SDS011;67668;52.294;4.692;2023-05-07T12:48:22;6.53;;;2.65;;
78382;SDS011;67668;52.294;4.692;2023-05-07T12:50:51;7.32;;;2.83;;
78382;SDS011;67668;52.294;4.692;2023-05-07T12:53:20;8.88;;;3.08;;
78382;SDS011;67668;52.294;4.692;2023-05-07T12:55:48;6.72;;;2.58;;
78382;SDS011;67668;52.294;4.692;2023-05-07T12:58:15;7.65;;;2.92;;
78382;SDS011;67668;52.294;4.692;2023-05-07T13:00:41;8.20;;;3.03;;
78382;SDS011;67668;52.294;4.692;2023-05-07T13:03:08;6.50;;;3.00;;
78382;SDS011;67668;52.294;4.692;2023-05-07T13:05:33;5.67;;;3.80;;
78382;SDS011;67668;52.294;4.692;2023-05-07T13:07:58;6.93;;;4.35;;
78382;SDS011;67668;52.294;4.692;2023-05-07T13:10:24;8.35;;;4.68;;
78382;SDS011;67668;52.294;4.692;2023-05-07T13:12:50;11.52;;;4.95;;
78382;SDS011;67668;52.294;4.692;2023-05-07T13:15:17;9.15;;;4.30;;
78382;SDS011;67668;52.294;4.692;2023-05-07T13:17:42;8.93;;;4.40;;
78382;SDS011;67668;52.294;4.692;2023-05-07T13:20:11;10.48;;;5.07;;
78382;SDS011;67668;52.294;4.692;2023-05-07T13:22:40;8.75;;;5.25;;
78382;SDS011;67668;52.294;4.692;2023-05-07T13:25:06;9.88;;;5.35;;
78382;SDS011;67668;52.294;4.692;2023-05-07T13:27:32;12.43;;;6.45;;
78382;SDS011;67668;52.294;4.692;2023-05-07T13:30:00;11.55;;;6.13;;
78382;SDS011;67668;52.294;4.692;2023-05-07T13:32:25;14.53;;;7.33;;
78382;SDS011;67668;52.294;4.692;2023-05-07T13:34:51;12.00;;;7.03;;
78382;SDS011;67668;52.294;4.692;2023-05-07T13:37:16;13.07;;;6.65;;
78382;SDS011;67668;52.294;4.692;2023-05-07T13:39:42;12.88;;;8.05;;
78382;SDS011;67668;52.294;4.692;2023-05-07T13:42:07;16.38;;;9.30;;
78382;SDS011;67668;52.294;4.692;2023-05-07T13:44:32;15.75;;;9.80;;
78382;SDS011;67668;52.294;4.692;2023-05-07T13:46:58;17.15;;;11.00;;
78382;SDS011;67668;52.294;4.692;2023-05-07T13:49:23;15.30;;;10.13;;
78382;SDS011;67668;52.294;4.692;2023-05-07T13:51:49;15.07;;;9.85;;
78382;SDS011;67668;52.294;4.692;2023-05-07T13:54:14;14.43;;;10.25;;
78382;SDS011;67668;52.294;4.692;2023-05-07T13:56:41;15.18;;;10.05;;
78382;SDS011;67668;52.294;4.692;2023-05-07T13:59:06;12.82;;;9.73;;
78382;SDS011;67668;52.294;4.692;2023-05-07T14:01:32;15.57;;;10.23;;
78382;SDS011;67668;52.294;4.692;2023-05-07T14:03:57;15.68;;;10.90;;
78382;SDS011;67668;52.294;4.692;2023-05-07T14:06:24;16.30;;;10.43;;
78382;SDS011;67668;52.294;4.692;2023-05-07T14:08:50;19.90;;;11.13;;
78382;SDS011;67668;52.294;4.692;2023-05-07T14:11:15;16.30;;;11.48;;
78382;SDS011;67668;52.294;4.692;2023-05-07T14:13:41;13.88;;;10.20;;
78382;SDS011;67668;52.294;4.692;2023-05-07T14:16:07;18.30;;;10.65;;
78382;SDS011;67668;52.294;4.692;2023-05-07T14:18:33;16.58;;;11.15;;
78382;SDS011;67668;52.294;4.692;2023-05-07T14:20:59;14.38;;;10.30;;
78382;SDS011;67668;52.294;4.692;2023-05-07T14:23:24;14.02;;;10.30;;
78382;SDS011;67668;52.294;4.692;2023-05-07T14:25:54;19.60;;;11.30;;
78382;SDS011;67668;52.294;4.692;2023-05-07T14:28:23;15.63;;;9.93;;
78382;SDS011;67668;52.294;4.692;2023-05-07T14:30:48;14.80;;;9.70;;
78382;SDS011;67668;52.294;4.692;2023-05-07T14:33:14;14.87;;;10.73;;
78382;SDS011;67668;52.294;4.692;2023-05-07T14:35:39;15.55;;;11.40;;
78382;SDS011;67668;52.294;4.692;2023-05-07T14:38:05;15.80;;;10.45;;
78382;SDS011;67668;52.294;4.692;2023-05-07T14:40:30;16.47;;;9.80;;
78382;SDS011;67668;52.294;4.692;2023-05-07T14:42:56;15.90;;;9.80;;
78382;SDS011;67668;52.294;4.692;2023-05-07T14:45:23;15.38;;;9.02;;
78382;SDS011;67668;52.294;4.692;2023-05-07T14:47:48;13.38;;;8.63;;
78382;SDS011;67668;52.294;4.692;2023-05-07T14:50:14;14.48;;;8.65;;
78382;SDS011;67668;52.294;4.692;2023-05-07T14:52:39;15.38;;;8.60;;
78382;SDS011;67668;52.294;4.692;2023-05-07T14:55:05;15.85;;;8.63;;
78382;SDS011;67668;52.294;4.692;2023-05-07T14:57:31;14.27;;;8.05;;